sensor_id;sensor_type;location;lat;lon;timestamp;pressure;altitude;pressure_sealevel;temperature;humidity
28630;BME280;15817;42.130;24.762;2022-10-17T00:04:56;101291.50;;;12.22;74.14
28630;BME280;15817;42.130;24.762;2022-10-17T00:07:24;101284.25;;;12.12;74.53
28630;BME280;15817;42.130;24.762;2022-10-17T00:09:55;101291.38;;;12.13;74.73
28630;BME280;15817;42.130;24.762;2022-10-17T00:12:24;101290.47;;;12.12;74.68
28630;BME280;15817;42.130;24.762;2022-10-17T00:14:55;101286.03;;;12.13;74.50
28630;BME280;15817;42.130;24.762;2022-10-17T00:17:21;101280.72;;;12.11;74.50
28630;BME280;15817;42.130;24.762;2022-10-17T00:19:47;101294.03;;;12.08;74.80
28630;BME280;15817;42.130;24.762;2022-10-17T00:22:17;101295.69;;;11.99;74.70
28630;BME280;15817;42.130;24.762;2022-10-17T00:24:43;101275.91;;;11.77;75.08
28630;BME280;15817;42.130;24.762;2022-10-17T00:27:12;101288.19;;;11.70;75.48
28630;BME280;15817;42.130;24.762;2022-10-17T00:29:38;101276.78;;;11.76;75.44
28630;BME280;15817;42.130;24.762;2022-10-17T00:32:04;101287.47;;;11.80;75.54
28630;BME280;15817;42.130;24.762;2022-10-17T00:34:30;101292.75;;;11.76;75.83
28630;BME280;15817;42.130;24.762;2022-10-17T00:36:56;101282.91;;;11.73;76.16
28630;BME280;15817;42.130;24.762;2022-10-17T00:39:23;101298.19;;;11.83;75.86
28630;BME280;15817;42.130;24.762;2022-10-17T00:41:49;101286.44;;;11.72;76.00
28630;BME280;15817;42.130;24.762;2022-10-17T00:47:02;101298.94;;;11.75;76.24
28630;BME280;15817;42.130;24.762;2022-10-17T00:49:34;101304.25;;;11.75;76.06
28630;BME280;15817;42.130;24.762;2022-10-17T00:52:10;101289.03;;;11.66;75.95
28630;BME280;15817;42.130;24.762;2022-10-17T00:54:41;101298.00;;;11.71;75.96
28630;BME280;15817;42.130;24.762;2022-10-17T00:57:11;101288.19;;;11.69;75.82
28630;BME280;15817;42.130;24.762;2022-10-17T00:59:39;101307.81;;;11.74;75.70
28630;BME280;15817;42.130;24.762;2022-10-17T01:02:13;101294.34;;;11.66;75.43
28630;BME280;15817;42.130;24.762;2022-10-17T01:04:44;101293.47;;;11.67;75.63
28630;BME280;15817;42.130;24.762;2022-10-17T01:07:11;101298.88;;;11.72;75.57
28630;BME280;15817;42.130;24.762;2022-10-17T01:09:40;101287.25;;;11.67;75.24
28630;BME280;15817;42.130;24.762;2022-10-17T01:12:26;101306.94;;;11.75;75.15
28630;BME280;15817;42.130;24.762;2022-10-17T01:20:51;101306.00;;;11.73;75.15
28630;BME280;15817;42.130;24.762;2022-10-17T01:23:39;101307.69;;;11.66;75.09
28630;BME280;15817;42.130;24.762;2022-10-17T01:26:22;101313.03;;;11.68;75.12
28630;BME280;15817;42.130;24.762;2022-10-17T01:31:46;101319.16;;;11.59;74.85
28630;BME280;15817;42.130;24.762;2022-10-17T01:34:18;101302.16;;;11.49;75.41
28630;BME280;15817;42.130;24.762;2022-10-17T01:37:01;101311.09;;;11.54;75.55
28630;BME280;15817;42.130;24.762;2022-10-17T01:39:43;101302.97;;;11.45;75.29
28630;BME280;15817;42.130;24.762;2022-10-17T01:45:03;101306.56;;;11.47;75.23
28630;BME280;15817;42.130;24.762;2022-10-17T01:47:35;101302.06;;;11.42;75.32
28630;BME280;15817;42.130;24.762;2022-10-17T01:50:17;101318.06;;;11.45;74.90
28630;BME280;15817;42.130;24.762;2022-10-17T01:52:49;101304.53;;;11.28;75.13
28630;BME280;15817;42.130;24.762;2022-10-17T01:55:30;101303.66;;;11.29;75.45
28630;BME280;15817;42.130;24.762;2022-10-17T01:58:22;101312.53;;;11.28;75.43
28630;BME280;15817;42.130;24.762;2022-10-17T02:00:54;101315.09;;;11.23;75.59
28630;BME280;15817;42.130;24.762;2022-10-17T02:03:22;101318.59;;;11.19;75.77
28630;BME280;15817;42.130;24.762;2022-10-17T02:05:49;101314.94;;;11.13;75.91
28630;BME280;15817;42.130;24.762;2022-10-17T02:08:45;101325.50;;;11.08;75.87
28630;BME280;15817;42.130;24.762;2022-10-17T02:14:03;101342.34;;;11.04;76.37
28630;BME280;15817;42.130;24.762;2022-10-17T02:16:37;101335.09;;;10.94;76.57
28630;BME280;15817;42.130;24.762;2022-10-17T02:30:43;101350.22;;;10.47;76.64
28630;BME280;15817;42.130;24.762;2022-10-17T02:33:34;101347.41;;;10.39;76.72
28630;BME280;15817;42.130;24.762;2022-10-17T02:36:08;101342.84;;;10.32;76.77
28630;BME280;15817;42.130;24.762;2022-10-17T02:38:37;101350.13;;;10.42;77.00
28630;BME280;15817;42.130;24.762;2022-10-17T02:41:05;101361.91;;;10.55;76.77
28630;BME280;15817;42.130;24.762;2022-10-17T02:43:35;101357.53;;;10.59;76.71
28630;BME280;15817;42.130;24.762;2022-10-17T02:48:52;101364.59;;;10.57;76.87
28630;BME280;15817;42.130;24.762;2022-10-17T02:51:28;101374.44;;;10.62;77.19
28630;BME280;15817;42.130;24.762;2022-10-17T02:54:11;101377.13;;;10.64;76.82
28630;BME280;15817;42.130;24.762;2022-10-17T02:56:50;101362.69;;;10.49;76.71
28630;BME280;15817;42.130;24.762;2022-10-17T02:59:19;101374.25;;;10.51;77.03
28630;BME280;15817;42.130;24.762;2022-10-17T03:01:48;101382.22;;;10.51;77.13
28630;BME280;15817;42.130;24.762;2022-10-17T03:04:45;101378.66;;;10.51;77.24
28630;BME280;15817;42.130;24.762;2022-10-17T03:07:14;101382.84;;;10.37;77.28
28630;BME280;15817;42.130;24.762;2022-10-17T03:09:41;101370.97;;;10.20;77.33
28630;BME280;15817;42.130;24.762;2022-10-17T03:12:06;101364.69;;;10.17;77.96
28630;BME280;15817;42.130;24.762;2022-10-17T03:14:33;101379.19;;;10.32;78.04
28630;BME280;15817;42.130;24.762;2022-10-17T03:16:59;101371.00;;;10.21;77.91
28630;BME280;15817;42.130;24.762;2022-10-17T03:19:25;101374.59;;;10.23;78.06
28630;BME280;15817;42.130;24.762;2022-10-17T03:21:52;101379.88;;;10.22;77.76
28630;BME280;15817;42.130;24.762;2022-10-17T03:24:18;101379.09;;;10.27;77.38
28630;BME280;15817;42.130;24.762;2022-10-17T03:26:46;101381.75;;;10.27;77.31
28630;BME280;15817;42.130;24.762;2022-10-17T03:29:14;101377.31;;;10.28;77.94
28630;BME280;15817;42.130;24.762;2022-10-17T03:31:40;101372.91;;;10.28;78.04
28630;BME280;15817;42.130;24.762;2022-10-17T03:34:07;101367.59;;;10.28;78.56
28630;BME280;15817;42.130;24.762;2022-10-17T03:36:33;101376.69;;;10.41;78.24
28630;BME280;15817;42.130;24.762;2022-10-17T03:39:00;101379.44;;;10.44;78.23
28630;BME280;15817;42.130;24.762;2022-10-17T03:41:26;101385.72;;;10.47;78.14
28630;BME280;15817;42.130;24.762;2022-10-17T03:44:03;101376.72;;;10.42;77.93
28630;BME280;15817;42.130;24.762;2022-10-17T03:46:30;101392.72;;;10.44;78.07
28630;BME280;15817;42.130;24.762;2022-10-17T03:49:04;101390.88;;;10.38;78.01
28630;BME280;15817;42.130;24.762;2022-10-17T03:51:55;101398.66;;;10.31;78.37
28630;BME280;15817;42.130;24.762;2022-10-17T03:55:23;101398.22;;;10.09;78.71
28630;BME280;15817;42.130;24.762;2022-10-17T03:57:56;101394.66;;;10.09;78.90
28630;BME280;15817;42.130;24.762;2022-10-17T04:00:34;101387.47;;;10.03;78.80
28630;BME280;15817;42.130;24.762;2022-10-17T04:03:01;101380.53;;;10.11;78.27
28630;BME280;15817;42.130;24.762;2022-10-17T04:05:30;101376.19;;;10.15;78.27
28630;BME280;15817;42.130;24.762;2022-10-17T04:08:08;101387.06;;;10.26;78.68
28630;BME280;15817;42.130;24.762;2022-10-17T04:11:07;101370.25;;;10.28;78.86
28630;BME280;15817;42.130;24.762;2022-10-17T04:13:37;101374.00;;;10.38;78.24
28630;BME280;15817;42.130;24.762;2022-10-17T04:16:09;101387.38;;;10.42;78.12
28630;BME280;15817;42.130;24.762;2022-10-17T04:18:43;101390.03;;;10.42;78.03
28630;BME280;15817;42.130;24.762;2022-10-17T04:21:13;101398.00;;;10.42;77.97
28630;BME280;15817;42.130;24.762;2022-10-17T04:23:50;101389.97;;;10.38;78.01
28630;BME280;15817;42.130;24.762;2022-10-17T04:26:31;101393.47;;;10.35;78.13
28630;BME280;15817;42.130;24.762;2022-10-17T04:29:09;101392.59;;;10.36;77.62
28630;BME280;15817;42.130;24.762;2022-10-17T04:31:41;101401.50;;;10.40;77.84
28630;BME280;15817;42.130;24.762;2022-10-17T04:34:20;101397.16;;;10.43;77.51
28630;BME280;15817;42.130;24.762;2022-10-17T04:36:56;101397.97;;;10.41;77.36
28630;BME280;15817;42.130;24.762;2022-10-17T04:39:33;101405.94;;;10.39;77.70
28630;BME280;15817;42.130;24.762;2022-10-17T04:42:11;101405.94;;;10.39;77.57
28630;BME280;15817;42.130;24.762;2022-10-17T04:44:39;101402.50;;;10.45;77.31
28630;BME280;15817;42.130;24.762;2022-10-17T04:47:06;101416.69;;;10.45;77.36
28630;BME280;15817;42.130;24.762;2022-10-17T04:49:35;101409.66;;;10.47;77.29
28630;BME280;15817;42.130;24.762;2022-10-17T04:52:09;101413.94;;;10.41;77.46
28630;BME280;15817;42.130;24.762;2022-10-17T04:54:57;101422.91;;;10.46;77.44
28630;BME280;15817;42.130;24.762;2022-10-17T04:57:38;101417.47;;;10.40;77.36
28630;BME280;15817;42.130;24.762;2022-10-17T05:00:23;101422.75;;;10.37;77.32
28630;BME280;15817;42.130;24.762;2022-10-17T05:03:02;101434.28;;;10.37;77.31
28630;BME280;15817;42.130;24.762;2022-10-17T05:05:29;101457.41;;;10.41;77.17
28630;BME280;15817;42.130;24.762;2022-10-17T05:07:56;101458.22;;;10.39;77.69
28630;BME280;15817;42.130;24.762;2022-10-17T05:10:44;101467.22;;;10.44;77.57
28630;BME280;15817;42.130;24.762;2022-10-17T05:13:15;101454.66;;;10.37;76.94
28630;BME280;15817;42.130;24.762;2022-10-17T05:16:14;101466.09;;;10.33;77.30
28630;BME280;15817;42.130;24.762;2022-10-17T05:18:40;101463.28;;;10.25;77.40
28630;BME280;15817;42.130;24.762;2022-10-17T05:21:06;101463.00;;;10.13;78.11
28630;BME280;15817;42.130;24.762;2022-10-17T05:23:34;101470.22;;;10.19;78.36
28630;BME280;15817;42.130;24.762;2022-10-17T05:26:03;101467.44;;;10.15;78.08
28630;BME280;15817;42.130;24.762;2022-10-17T05:28:29;101488.09;;;10.24;77.97
28630;BME280;15817;42.130;24.762;2022-10-17T05:31:10;101487.28;;;10.30;78.33
28630;BME280;15817;42.130;24.762;2022-10-17T05:33:46;101494.44;;;10.32;77.94
28630;BME280;15817;42.130;24.762;2022-10-17T05:36:20;101480.78;;;10.17;78.17
28630;BME280;15817;42.130;24.762;2022-10-17T05:38:57;101494.94;;;10.14;78.40
28630;BME280;15817;42.130;24.762;2022-10-17T05:41:26;101488.72;;;10.15;78.45
28630;BME280;15817;42.130;24.762;2022-10-17T05:43:52;101503.06;;;10.21;78.35
28630;BME280;15817;42.130;24.762;2022-10-17T05:46:30;101511.16;;;10.25;78.67
28630;BME280;15817;42.130;24.762;2022-10-17T05:48:56;101505.91;;;10.30;78.87
28630;BME280;15817;42.130;24.762;2022-10-17T05:51:22;101499.69;;;10.29;78.38
28630;BME280;15817;42.130;24.762;2022-10-17T05:53:48;101514.03;;;10.36;78.38
28630;BME280;15817;42.130;24.762;2022-10-17T05:56:21;101502.56;;;10.38;78.42
28630;BME280;15817;42.130;24.762;2022-10-17T05:58:47;101515.09;;;10.44;78.45
28630;BME280;15817;42.130;24.762;2022-10-17T06:01:39;101514.13;;;10.40;78.06
28630;BME280;15817;42.130;24.762;2022-10-17T06:04:05;101517.72;;;10.42;77.92
28630;BME280;15817;42.130;24.762;2022-10-17T06:06:30;101516.88;;;10.45;78.17
28630;BME280;15817;42.130;24.762;2022-10-17T06:09:03;101515.19;;;10.48;77.99
28630;BME280;15817;42.130;24.762;2022-10-17T06:11:36;101520.56;;;10.51;78.03
28630;BME280;15817;42.130;24.762;2022-10-17T06:14:02;101517.94;;;10.53;77.54
28630;BME280;15817;42.130;24.762;2022-10-17T06:16:29;101529.59;;;10.58;77.30
28630;BME280;15817;42.130;24.762;2022-10-17T06:18:55;101543.81;;;10.62;77.17
28630;BME280;15817;42.130;24.762;2022-10-17T06:21:24;101534.97;;;10.61;76.79
28630;BME280;15817;42.130;24.762;2022-10-17T06:23:57;101540.34;;;10.64;76.30
28630;BME280;15817;42.130;24.762;2022-10-17T06:26:27;101551.16;;;10.72;76.10
28630;BME280;15817;42.130;24.762;2022-10-17T06:28:57;101537.75;;;10.67;75.54
28630;BME280;15817;42.130;24.762;2022-10-17T06:31:28;101552.13;;;10.77;75.05
28630;BME280;15817;42.130;24.762;2022-10-17T06:33:57;101555.69;;;10.77;74.84
28630;BME280;15817;42.130;24.762;2022-10-17T06:36:28;101542.06;;;10.62;75.05
28630;BME280;15817;42.130;24.762;2022-10-17T06:38:54;101548.34;;;10.66;75.24
28630;BME280;15817;42.130;24.762;2022-10-17T06:41:34;101554.72;;;10.74;75.20
28630;BME280;15817;42.130;24.762;2022-10-17T06:44:03;101544.88;;;10.68;75.36
28630;BME280;15817;42.130;24.762;2022-10-17T06:47:09;101553.06;;;10.79;75.50
28630;BME280;15817;42.130;24.762;2022-10-17T06:49:35;101545.84;;;10.73;75.47
28630;BME280;15817;42.130;24.762;2022-10-17T06:52:17;101551.34;;;10.81;75.57
28630;BME280;15817;42.130;24.762;2022-10-17T06:55:06;101540.69;;;10.81;75.40
28630;BME280;15817;42.130;24.762;2022-10-17T06:57:41;101538.00;;;10.79;75.59
28630;BME280;15817;42.130;24.762;2022-10-17T07:00:25;101549.66;;;10.86;75.46
28630;BME280;15817;42.130;24.762;2022-10-17T07:02:56;101543.47;;;10.87;75.82
28630;BME280;15817;42.130;24.762;2022-10-17T07:05:59;101555.25;;;11.00;75.68
28630;BME280;15817;42.130;24.762;2022-10-17T07:09:23;101557.91;;;11.00;75.73
28630;BME280;15817;42.130;24.762;2022-10-17T07:11:59;101549.00;;;10.98;75.84
28630;BME280;15817;42.130;24.762;2022-10-17T07:14:34;101547.34;;;11.03;76.09
28630;BME280;15817;42.130;24.762;2022-10-17T07:17:00;101551.88;;;11.10;75.63
28630;BME280;15817;42.130;24.762;2022-10-17T07:19:29;101564.59;;;11.24;75.26
28630;BME280;15817;42.130;24.762;2022-10-17T07:22:03;101572.84;;;11.38;74.68
28630;BME280;15817;42.130;24.762;2022-10-17T07:24:30;101574.66;;;11.39;74.32
28630;BME280;15817;42.130;24.762;2022-10-17T07:27:30;101581.94;;;11.49;74.29
28630;BME280;15817;42.130;24.762;2022-10-17T07:30:00;101573.16;;;11.56;74.14
28630;BME280;15817;42.130;24.762;2022-10-17T07:32:35;101582.28;;;11.69;73.76
28630;BME280;15817;42.130;24.762;2022-10-17T07:35:02;101585.16;;;11.80;73.27
28630;BME280;15817;42.130;24.762;2022-10-17T07:37:28;101574.59;;;11.86;73.30
28630;BME280;15817;42.130;24.762;2022-10-17T07:40:03;101577.44;;;11.96;72.95
28630;BME280;15817;42.130;24.762;2022-10-17T07:42:35;101596.38;;;12.15;72.50
28630;BME280;15817;42.130;24.762;2022-10-17T07:45:19;101589.34;;;12.18;72.17
28630;BME280;15817;42.130;24.762;2022-10-17T07:47:56;101583.22;;;12.27;71.99
28630;BME280;15817;42.130;24.762;2022-10-17T07:50:23;101583.34;;;12.36;71.41
28630;BME280;15817;42.130;24.762;2022-10-17T07:52:57;101580.84;;;12.47;70.72
28630;BME280;15817;42.130;24.762;2022-10-17T07:55:26;101561.41;;;12.58;70.62
28630;BME280;15817;42.130;24.762;2022-10-17T07:57:52;101565.13;;;12.69;69.86
28630;BME280;15817;42.130;24.762;2022-10-17T08:00:18;101574.22;;;12.84;69.59
28630;BME280;15817;42.130;24.762;2022-10-17T08:02:44;101569.88;;;12.93;69.46
28630;BME280;15817;42.130;24.762;2022-10-17T08:05:12;101558.31;;;12.96;68.96
28630;BME280;15817;42.130;24.762;2022-10-17T08:07:38;101569.09;;;13.02;68.56
28630;BME280;15817;42.130;24.762;2022-10-17T08:10:05;101559.38;;;13.09;68.41
28630;BME280;15817;42.130;24.762;2022-10-17T08:12:31;101557.75;;;13.21;68.29
28630;BME280;15817;42.130;24.762;2022-10-17T08:15:03;101558.69;;;13.25;67.93
28630;BME280;15817;42.130;24.762;2022-10-17T08:17:35;101544.47;;;13.29;67.66
28630;BME280;15817;42.130;24.762;2022-10-17T08:20:04;101557.09;;;13.44;67.31
28630;BME280;15817;42.130;24.762;2022-10-17T08:22:31;101548.22;;;13.46;67.22
28630;BME280;15817;42.130;24.762;2022-10-17T08:24:59;101556.34;;;13.58;66.93
28630;BME280;15817;42.130;24.762;2022-10-17T08:27:27;101551.94;;;13.66;66.85
28630;BME280;15817;42.130;24.762;2022-10-17T08:29:54;101552.00;;;13.74;66.34
28630;BME280;15817;42.130;24.762;2022-10-17T08:32:21;101559.22;;;13.86;66.04
28630;BME280;15817;42.130;24.762;2022-10-17T08:34:48;101551.25;;;13.90;65.51
28630;BME280;15817;42.130;24.762;2022-10-17T08:37:14;101553.97;;;13.95;65.70
28630;BME280;15817;42.130;24.762;2022-10-17T08:39:40;101557.66;;;14.12;65.36
28630;BME280;15817;42.130;24.762;2022-10-17T08:45:35;101571.19;;;14.38;65.05
28630;BME280;15817;42.130;24.762;2022-10-17T08:48:15;101554.34;;;14.51;64.21
28630;BME280;15817;42.130;24.762;2022-10-17T08:50:50;101567.81;;;14.68;63.60
28630;BME280;15817;42.130;24.762;2022-10-17T08:53:22;101561.63;;;14.82;63.94
28630;BME280;15817;42.130;24.762;2022-10-17T08:55:52;101552.72;;;14.85;63.25
28630;BME280;15817;42.130;24.762;2022-10-17T08:58:30;101547.34;;;14.91;63.04
28630;BME280;15817;42.130;24.762;2022-10-17T09:12:27;101549.22;;;15.26;59.60
28630;BME280;15817;42.130;24.762;2022-10-17T09:16:17;101537.66;;;15.33;59.77
28630;BME280;15817;42.130;24.762;2022-10-17T09:18:19;101532.25;;;15.36;59.16
28630;BME280;15817;42.130;24.762;2022-10-17T09:20:54;101533.19;;;15.45;59.33
28630;BME280;15817;42.130;24.762;2022-10-17T09:23:46;101530.56;;;15.57;59.14
28630;BME280;15817;42.130;24.762;2022-10-17T09:26:13;101525.19;;;15.64;58.67
28630;BME280;15817;42.130;24.762;2022-10-17T09:28:40;101528.75;;;15.75;59.26
28630;BME280;15817;42.130;24.762;2022-10-17T09:31:22;101532.31;;;15.89;56.12
28630;BME280;15817;42.130;24.762;2022-10-17T09:33:54;101540.34;;;15.93;54.84
28630;BME280;15817;42.130;24.762;2022-10-17T09:36:36;101536.78;;;16.01;53.47
28630;BME280;15817;42.130;24.762;2022-10-17T09:39:13;101516.19;;;16.07;55.87
28630;BME280;15817;42.130;24.762;2022-10-17T09:41:49;101517.97;;;16.13;54.09
28630;BME280;15817;42.130;24.762;2022-10-17T09:44:20;101524.22;;;16.22;53.59
28630;BME280;15817;42.130;24.762;2022-10-17T09:49:51;101517.91;;;16.33;52.10
28630;BME280;15817;42.130;24.762;2022-10-17T09:52:39;101508.97;;;16.35;53.74
28630;BME280;15817;42.130;24.762;2022-10-17T09:57:55;101497.28;;;16.45;51.28
28630;BME280;15817;42.130;24.762;2022-10-17T10:00:27;101508.03;;;16.45;50.49
28630;BME280;15817;42.130;24.762;2022-10-17T10:03:19;101497.28;;;16.47;49.19
28630;BME280;15817;42.130;24.762;2022-10-17T10:06:05;101492.75;;;16.58;52.01
28630;BME280;15817;42.130;24.762;2022-10-17T10:08:50;101493.63;;;16.71;50.63
28630;BME280;15817;42.130;24.762;2022-10-17T10:11:17;101492.75;;;16.67;47.84
28630;BME280;15817;42.130;24.762;2022-10-17T10:13:45;101488.22;;;16.74;47.47
28630;BME280;15817;42.130;24.762;2022-10-17T10:16:29;101480.13;;;16.80;43.61
28630;BME280;15817;42.130;24.762;2022-10-17T10:18:58;101477.44;;;16.83;43.99
28630;BME280;15817;42.130;24.762;2022-10-17T10:21:27;101472.97;;;16.79;43.87
28630;BME280;15817;42.130;24.762;2022-10-17T10:24:11;101474.75;;;16.83;44.02
28630;BME280;15817;42.130;24.762;2022-10-17T10:27:04;101468.41;;;16.91;42.57
28630;BME280;15817;42.130;24.762;2022-10-17T10:29:40;101463.88;;;16.96;43.49
28630;BME280;15817;42.130;24.762;2022-10-17T10:32:30;101466.56;;;17.01;41.11
28630;BME280;15817;42.130;24.762;2022-10-17T10:35:32;101471.91;;;17.07;43.00
28630;BME280;15817;42.130;24.762;2022-10-17T10:38:10;101470.06;;;17.09;42.49
28630;BME280;15817;42.130;24.762;2022-10-17T10:41:16;101455.72;;;17.12;42.42
28630;BME280;15817;42.130;24.762;2022-10-17T10:43:47;101455.72;;;17.10;41.02
28630;BME280;15817;42.130;24.762;2022-10-17T10:46:29;101448.63;;;17.03;40.80
28630;BME280;15817;42.130;24.762;2022-10-17T10:49:00;101445.88;;;17.08;44.23
28630;BME280;15817;42.130;24.762;2022-10-17T10:51:41;101454.78;;;17.19;45.08
28630;BME280;15817;42.130;24.762;2022-10-17T10:54:24;101450.25;;;17.25;44.48
28630;BME280;15817;42.130;24.762;2022-10-17T10:56:58;101441.28;;;17.23;44.44
28630;BME280;15817;42.130;24.762;2022-10-17T10:59:51;101442.16;;;17.28;44.44
28630;BME280;15817;42.130;24.762;2022-10-17T11:05:13;101440.34;;;17.30;43.84
28630;BME280;15817;42.130;24.762;2022-10-17T11:07:49;101430.53;;;17.23;43.16
28630;BME280;15817;42.130;24.762;2022-10-17T11:10:30;101431.41;;;17.28;45.22
28630;BME280;15817;42.130;24.762;2022-10-17T11:13:30;101426.03;;;17.30;46.38
28630;BME280;15817;42.130;24.762;2022-10-17T11:19:03;101431.34;;;17.34;45.65
28630;BME280;15817;42.130;24.762;2022-10-17T11:24:36;101420.56;;;17.36;45.58
28630;BME280;15817;42.130;24.762;2022-10-17T11:27:05;101418.78;;;17.35;44.51
28630;BME280;15817;42.130;24.762;2022-10-17T11:29:38;101410.72;;;17.33;44.63
28630;BME280;15817;42.130;24.762;2022-10-17T11:32:38;101406.28;;;17.29;43.69
28630;BME280;15817;42.130;24.762;2022-10-17T11:35:29;101422.38;;;17.32;44.05
28630;BME280;15817;42.130;24.762;2022-10-17T11:38:11;101416.09;;;17.35;45.07
28630;BME280;15817;42.130;24.762;2022-10-17T11:40:51;101389.28;;;17.27;45.49
28630;BME280;15817;42.130;24.762;2022-10-17T11:43:34;101404.50;;;17.30;44.33
28630;BME280;15817;42.130;24.762;2022-10-17T11:46:12;101395.59;;;17.20;44.61
28630;BME280;15817;42.130;24.762;2022-10-17T11:51:47;101388.47;;;17.16;46.21
28630;BME280;15817;42.130;24.762;2022-10-17T11:54:23;101387.56;;;17.17;46.62
28630;BME280;15817;42.130;24.762;2022-10-17T12:00:01;101392.97;;;17.16;47.82
28630;BME280;15817;42.130;24.762;2022-10-17T12:08:04;101382.09;;;17.26;44.97
28630;BME280;15817;42.130;24.762;2022-10-17T12:16:46;101370.56;;;17.14;44.49
28630;BME280;15817;42.130;24.762;2022-10-17T12:19:23;101382.19;;;17.17;44.35
28630;BME280;15817;42.130;24.762;2022-10-17T12:24:57;101363.41;;;17.14;44.99
28630;BME280;15817;42.130;24.762;2022-10-17T12:27:43;101365.19;;;17.14;46.47
28630;BME280;15817;42.130;24.762;2022-10-17T12:32:58;101367.84;;;17.17;44.18
28630;BME280;15817;42.130;24.762;2022-10-17T12:35:35;101369.59;;;17.19;44.73
28630;BME280;15817;42.130;24.762;2022-10-17T12:45:56;101373.25;;;17.12;45.42
28630;BME280;15817;42.130;24.762;2022-10-17T12:51:18;101362.53;;;17.11;47.06
28630;BME280;15817;42.130;24.762;2022-10-17T12:54:01;101365.22;;;17.08;47.95
28630;BME280;15817;42.130;24.762;2022-10-17T12:56:42;101346.41;;;17.09;46.31
28630;BME280;15817;42.130;24.762;2022-10-17T12:59:23;101358.94;;;17.12;46.55
28630;BME280;15817;42.130;24.762;2022-10-17T13:02:00;101367.00;;;17.12;45.84
28630;BME280;15817;42.130;24.762;2022-10-17T13:04:49;101358.13;;;17.04;46.33
28630;BME280;15817;42.130;24.762;2022-10-17T13:07:23;101362.59;;;17.03;46.22
28630;BME280;15817;42.130;24.762;2022-10-17T13:09:50;101363.44;;;17.08;46.58
28630;BME280;15817;42.130;24.762;2022-10-17T13:12:24;101372.38;;;17.09;46.63
28630;BME280;15817;42.130;24.762;2022-10-17T13:14:55;101365.28;;;17.03;46.68
28630;BME280;15817;42.130;24.762;2022-10-17T13:17:31;101368.88;;;17.00;47.53
28630;BME280;15817;42.130;24.762;2022-10-17T13:19:58;101365.34;;;16.95;48.58
28630;BME280;15817;42.130;24.762;2022-10-17T13:22:30;101380.53;;;16.98;48.49
28630;BME280;15817;42.130;24.762;2022-10-17T13:25:17;101367.09;;;16.98;47.54
28630;BME280;15817;42.130;24.762;2022-10-17T13:27:44;101379.56;;;17.08;46.85
28630;BME280;15817;42.130;24.762;2022-10-17T13:30:36;101372.38;;;17.10;46.54
28630;BME280;15817;42.130;24.762;2022-10-17T13:33:17;101364.38;;;17.04;47.44
28630;BME280;15817;42.130;24.762;2022-10-17T13:36:20;101357.16;;;17.09;46.39
28630;BME280;15817;42.130;24.762;2022-10-17T13:38:46;101363.41;;;17.10;47.24
28630;BME280;15817;42.130;24.762;2022-10-17T13:41:24;101358.03;;;17.10;47.05
28630;BME280;15817;42.130;24.762;2022-10-17T13:43:56;101364.31;;;17.12;46.91
28630;BME280;15817;42.130;24.762;2022-10-17T13:46:30;101357.22;;;17.05;47.37
28630;BME280;15817;42.130;24.762;2022-10-17T13:49:33;101373.34;;;17.06;48.08
28630;BME280;15817;42.130;24.762;2022-10-17T13:52:03;101363.56;;;16.96;49.21
28630;BME280;15817;42.130;24.762;2022-10-17T13:54:40;101350.13;;;16.93;48.18
28630;BME280;15817;42.130;24.762;2022-10-17T13:57:24;101355.50;;;16.93;49.06
28630;BME280;15817;42.130;24.762;2022-10-17T14:00:03;101349.25;;;16.92;49.13
28630;BME280;15817;42.130;24.762;2022-10-17T14:02:39;101341.22;;;16.86;48.85
28630;BME280;15817;42.130;24.762;2022-10-17T14:07:42;101358.13;;;17.02;48.13
28630;BME280;15817;42.130;24.762;2022-10-17T14:10:30;101354.50;;;17.06;47.43
28630;BME280;15817;42.130;24.762;2022-10-17T14:13:06;101347.44;;;16.94;48.68
28630;BME280;15817;42.130;24.762;2022-10-17T14:15:34;101358.19;;;16.94;48.85
28630;BME280;15817;42.130;24.762;2022-10-17T14:18:06;101343.88;;;16.94;47.27
28630;BME280;15817;42.130;24.762;2022-10-17T14:20:35;101352.81;;;16.93;48.56
28630;BME280;15817;42.130;24.762;2022-10-17T14:23:02;101356.41;;;16.93;48.71
28630;BME280;15817;42.130;24.762;2022-10-17T14:25:36;101360.00;;;16.92;49.10
28630;BME280;15817;42.130;24.762;2022-10-17T14:31:30;101358.25;;;16.85;49.61
28630;BME280;15817;42.130;24.762;2022-10-17T14:33:57;101361.88;;;16.81;50.49
28630;BME280;15817;42.130;24.762;2022-10-17T14:36:33;101365.44;;;16.83;49.83
28630;BME280;15817;42.130;24.762;2022-10-17T14:38:59;101356.50;;;16.78;49.32
28630;BME280;15817;42.130;24.762;2022-10-17T14:41:28;101364.56;;;16.80;50.47
28630;BME280;15817;42.130;24.762;2022-10-17T14:44:02;101352.09;;;16.71;50.58
28630;BME280;15817;42.130;24.762;2022-10-17T14:46:35;101365.47;;;16.77;50.56
28630;BME280;15817;42.130;24.762;2022-10-17T14:49:07;101369.13;;;16.72;51.58
28630;BME280;15817;42.130;24.762;2022-10-17T14:51:35;101357.50;;;16.62;51.62
28630;BME280;15817;42.130;24.762;2022-10-17T14:54:26;101362.88;;;16.67;50.83
28630;BME280;15817;42.130;24.762;2022-10-17T14:56:54;101359.28;;;16.68;51.51
28630;BME280;15817;42.130;24.762;2022-10-17T14:59:20;101370.94;;;16.62;51.19
28630;BME280;15817;42.130;24.762;2022-10-17T15:01:50;101353.94;;;16.57;52.08
28630;BME280;15817;42.130;24.762;2022-10-17T15:04:19;101379.91;;;16.61;51.64